Marston, North Carolina
Current Conditions -  °F | °C
As of 6:56 PM on Wednesday 28 Jan 2015 (Local Time) from KHFF Reporting Station
Clear Clear  
Wind Chill: 32°   Ceiling: Unl
Heat Index: 32°   Visibility: 10mi
Dew Point: 21°   Wind: 2mph
Humidity: 65%   Direction: 170°S
Pressure: 30.3"   Gusts: NA
Location:  34.99°N, 79.58°W
Report Text: KHFF 282356Z AUTO 17002KT 10SM CLR 00/M06 A3030 RMK AO2 SLP267 T10011060 10085 21006 52020
Loading
Personal Weather Stations






























Interactive Weather Map New forecast layout! Learn more

10-Day Weather Forecast

Advertisements
Track Severe Weather on mobile